Whitehorse / Erik Nielsen International Airport

CYXY | YXY

Whitehorse , Yukon , Canada

Sunday, January 19th, 2020 | 11:08

Weather

CYXY 191800Z 18018G24KT 40SM FEW140 SCT200 M20/M23 A2959 RMK AC1CI3 SLP107

Charts

No Charts Available

Gates

55 Available

Runways

3 Available

Events

No events for this airport


New event